createdAt,value
2022-07-25T00:01:20.375Z,90.00
2022-07-25T00:03:47.110Z,90.40
2022-07-25T00:06:18.048Z,90.30
2022-07-25T00:08:44.893Z,90.30
2022-07-25T00:11:11.576Z,90.40
2022-07-25T00:13:38.148Z,90.10
2022-07-25T00:16:05.221Z,90.40
2022-07-25T00:18:31.872Z,90.40
2022-07-25T00:20:58.962Z,90.20
2022-07-25T00:23:25.680Z,90.40
2022-07-25T00:25:52.410Z,90.30
2022-07-25T00:28:19.005Z,90.40
2022-07-25T00:30:46.465Z,90.70
2022-07-25T00:33:13.428Z,91.40
2022-07-25T00:35:40.042Z,91.60
2022-07-25T00:38:06.641Z,90.70
2022-07-25T00:40:33.293Z,90.90
2022-07-25T00:42:59.890Z,90.90
2022-07-25T00:45:26.664Z,90.90
2022-07-25T00:47:53.440Z,90.80
2022-07-25T00:50:20.086Z,90.60
2022-07-25T00:52:46.733Z,90.50
2022-07-25T00:55:14.005Z,90.30
2022-07-25T00:57:40.777Z,90.50
2022-07-25T01:00:11.252Z,90.60
2022-07-25T01:02:38.030Z,90.80
2022-07-25T01:05:06.361Z,90.00
2022-07-25T01:07:33.281Z,90.50
2022-07-25T01:10:00.303Z,90.40
2022-07-25T01:12:27.102Z,90.70
2022-07-25T01:14:53.769Z,91.00
2022-07-25T01:17:20.373Z,90.80
2022-07-25T01:19:47.339Z,90.50
2022-07-25T01:22:13.977Z,90.90
2022-07-25T01:24:40.645Z,91.00
2022-07-25T01:27:07.375Z,90.90
2022-07-25T01:29:34.112Z,90.50
2022-07-25T01:32:02.860Z,90.50
2022-07-25T01:34:29.489Z,90.70
2022-07-25T01:36:56.107Z,90.60
2022-07-25T01:39:22.714Z,91.00
2022-07-25T01:41:49.313Z,91.30
2022-07-25T01:44:17.169Z,91.20
2022-07-25T01:46:43.869Z,90.90
2022-07-25T01:49:10.595Z,90.80
2022-07-25T01:51:37.295Z,90.90
2022-07-25T01:54:04.274Z,91.30
2022-07-25T01:56:35.690Z,91.30
2022-07-25T01:59:02.646Z,90.90
2022-07-25T02:01:29.291Z,91.20
2022-07-25T02:03:55.922Z,91.50
2022-07-25T02:06:22.505Z,91.40
2022-07-25T02:08:49.100Z,91.70
2022-07-25T02:11:16.558Z,91.00
2022-07-25T02:13:43.253Z,91.00
2022-07-25T02:16:10.204Z,91.30
2022-07-25T02:18:36.911Z,91.10
2022-07-25T02:21:07.073Z,91.00
2022-07-25T02:23:41.946Z,91.50
2022-07-25T02:26:08.552Z,91.30
2022-07-25T02:28:35.159Z,91.40
2022-07-25T02:31:01.908Z,91.70
2022-07-25T02:33:28.753Z,91.50
2022-07-25T02:35:55.794Z,91.60
2022-07-25T02:38:22.444Z,91.30
2022-07-25T02:40:50.916Z,91.80
2022-07-25T02:43:18.826Z,91.70
2022-07-25T02:45:46.020Z,91.30
2022-07-25T02:48:13.128Z,91.40
2022-07-25T02:50:39.761Z,91.60
2022-07-25T02:53:06.448Z,91.40
2022-07-25T02:55:33.093Z,91.40
2022-07-25T02:57:59.758Z,91.30
2022-07-25T03:00:26.506Z,91.30
2022-07-25T03:02:53.176Z,91.50
2022-07-25T03:05:19.856Z,91.40
2022-07-25T03:07:46.517Z,91.60
2022-07-25T03:10:14.146Z,91.50
2022-07-25T03:12:41.970Z,91.30
2022-07-25T03:15:09.803Z,91.50
2022-07-25T03:17:36.583Z,91.80
2022-07-25T03:20:04.868Z,91.60
2022-07-25T03:22:31.523Z,91.80
2022-07-25T03:24:58.172Z,91.80
2022-07-25T03:27:24.822Z,91.60
2022-07-25T03:29:51.500Z,91.90
2022-07-25T03:32:18.096Z,91.70
2022-07-25T03:34:44.720Z,91.60
2022-07-25T03:37:11.298Z,91.50
2022-07-25T03:39:38.026Z,91.50
2022-07-25T03:42:04.642Z,91.30
2022-07-25T03:44:31.364Z,91.50
2022-07-25T03:46:58.135Z,91.80
2022-07-25T03:49:24.871Z,91.80
2022-07-25T03:51:51.439Z,91.90
2022-07-25T03:54:18.029Z,92.00
2022-07-25T03:56:49.068Z,92.20
2022-07-25T03:59:20.845Z,92.10
2022-07-25T04:01:49.742Z,92.00
2022-07-25T04:04:17.655Z,92.10
2022-07-25T04:06:44.695Z,91.90
2022-07-25T04:09:11.742Z,91.60
2022-07-25T04:11:38.476Z,91.50
2022-07-25T04:14:06.325Z,91.70
2022-07-25T04:16:33.708Z,91.40
2022-07-25T04:19:01.159Z,91.80
2022-07-25T04:21:28.561Z,92.00
2022-07-25T04:23:55.279Z,92.00
2022-07-25T04:26:21.884Z,91.90
2022-07-25T04:28:48.465Z,92.00
2022-07-25T04:31:15.315Z,91.60
2022-07-25T04:33:42.728Z,91.60
2022-07-25T04:36:09.976Z,91.90
2022-07-25T04:38:36.788Z,92.60
2022-07-25T04:41:04.305Z,91.70
2022-07-25T04:43:31.003Z,92.00
2022-07-25T04:45:57.725Z,91.80
2022-07-25T04:48:24.395Z,91.80
2022-07-25T04:50:51.256Z,92.20
2022-07-25T04:53:19.065Z,91.70
2022-07-25T04:55:45.716Z,92.00
2022-07-25T04:58:12.397Z,91.90
2022-07-25T05:00:39.202Z,91.60
2022-07-25T05:03:05.848Z,91.90
2022-07-25T05:05:32.624Z,91.90
2022-07-25T05:08:00.035Z,92.00
2022-07-25T05:10:28.671Z,91.60
2022-07-25T05:12:56.244Z,91.80
2022-07-25T05:15:23.056Z,90.20
2022-07-25T05:17:50.493Z,90.20
2022-07-25T05:20:17.221Z,91.00
2022-07-25T05:22:43.925Z,90.70
2022-07-25T05:25:11.641Z,90.10
2022-07-25T05:27:38.703Z,88.60
2022-07-25T05:30:06.910Z,88.90
2022-07-25T05:32:33.537Z,89.70
2022-07-25T05:35:00.132Z,88.70
2022-07-25T05:37:26.900Z,90.10
2022-07-25T05:39:53.533Z,83.10
2022-07-25T05:42:20.199Z,87.70
2022-07-25T05:44:46.866Z,82.20
2022-07-25T05:47:13.625Z,82.80
2022-07-25T05:49:40.370Z,80.10
2022-07-25T05:52:12.429Z,80.50
2022-07-25T05:54:39.892Z,79.10
2022-07-25T05:57:06.480Z,79.20
2022-07-25T05:59:33.055Z,78.90
2022-07-25T06:02:01.616Z,78.30
2022-07-25T06:04:28.385Z,77.60
2022-07-25T06:06:55.924Z,78.50
2022-07-25T06:09:23.253Z,77.50
2022-07-25T06:11:58.129Z,76.60
2022-07-25T06:14:27.473Z,75.80
2022-07-25T06:16:55.469Z,75.30
2022-07-25T06:19:22.248Z,76.90
2022-07-25T06:21:49.077Z,76.80
2022-07-25T06:24:15.718Z,75.70
2022-07-25T06:26:42.695Z,74.00
2022-07-25T06:29:09.446Z,72.80
2022-07-25T06:31:36.121Z,73.60
2022-07-25T06:34:02.908Z,73.60
2022-07-25T06:36:32.181Z,74.30
2022-07-25T06:39:00.020Z,74.90
2022-07-25T06:41:27.092Z,75.70
2022-07-25T06:43:53.662Z,73.80
2022-07-25T06:46:20.361Z,75.10
2022-07-25T06:48:47.057Z,73.30
2022-07-25T06:51:13.844Z,74.40
2022-07-25T06:53:40.461Z,72.60
2022-07-25T06:56:07.310Z,74.40
2022-07-25T06:58:33.929Z,73.10
2022-07-25T07:01:01.182Z,73.60
2022-07-25T07:03:28.064Z,72.30
2022-07-25T07:05:54.895Z,72.90
2022-07-25T07:08:21.562Z,73.50
2022-07-25T07:10:48.425Z,74.30
2022-07-25T07:13:20.739Z,70.20
2022-07-25T07:15:51.461Z,70.80
2022-07-25T07:18:19.089Z,71.50
2022-07-25T07:20:46.315Z,71.60
2022-07-25T07:23:16.604Z,71.90
2022-07-25T07:25:46.797Z,70.70
2022-07-25T07:28:13.626Z,72.00
2022-07-25T07:31:13.498Z,72.50
2022-07-25T07:33:26.828Z,74.90
2022-07-25T07:35:55.865Z,72.80
2022-07-25T07:38:23.956Z,73.80
2022-07-25T07:40:50.549Z,72.70
2022-07-25T07:43:17.168Z,74.50
2022-07-25T07:45:44.365Z,73.50
2022-07-25T07:48:11.167Z,72.30
2022-07-25T07:50:38.287Z,74.00
2022-07-25T07:53:05.128Z,72.50
2022-07-25T07:55:55.109Z,70.30
2022-07-25T07:58:21.803Z,70.70
2022-07-25T08:00:51.527Z,71.70
2022-07-25T08:03:21.797Z,71.80
2022-07-25T08:05:49.258Z,71.70
2022-07-25T08:08:16.868Z,73.20
2022-07-25T08:10:45.571Z,73.20
2022-07-25T08:13:17.606Z,72.80
2022-07-25T08:15:46.798Z,74.60
2022-07-25T08:18:17.943Z,72.00
2022-07-25T08:20:46.648Z,70.30
2022-07-25T08:23:13.565Z,71.60
2022-07-25T08:25:40.531Z,71.70
2022-07-25T08:28:07.552Z,72.40
2022-07-25T08:30:35.838Z,73.50
2022-07-25T08:33:06.982Z,73.70
2022-07-25T08:35:34.701Z,74.40
2022-07-25T08:38:02.600Z,74.80
2022-07-25T08:40:31.234Z,74.60
2022-07-25T08:42:58.787Z,73.00
2022-07-25T08:45:27.814Z,70.10
2022-07-25T08:47:55.581Z,70.70
2022-07-25T08:50:25.491Z,69.90
2022-07-25T08:53:00.904Z,70.20
2022-07-25T08:55:31.757Z,71.20
2022-07-25T08:57:58.337Z,72.40
2022-07-25T09:00:29.734Z,72.80
2022-07-25T09:03:01.944Z,71.50
2022-07-25T09:05:30.491Z,71.80
2022-07-25T09:08:05.533Z,72.20
2022-07-25T09:10:32.342Z,72.80
2022-07-25T09:13:04.188Z,73.20
2022-07-25T09:15:32.034Z,71.80
2022-07-25T09:18:00.705Z,72.40
2022-07-25T09:20:43.854Z,71.90
2022-07-25T09:23:12.706Z,73.00
2022-07-25T09:25:40.028Z,70.20
2022-07-25T09:28:18.617Z,70.70
2022-07-25T09:30:59.292Z,69.30
2022-07-25T09:33:27.941Z,69.80
2022-07-25T09:37:05.037Z,70.00
2022-07-25T09:39:34.038Z,72.40
2022-07-25T09:42:00.718Z,72.90
2022-07-25T09:44:30.392Z,71.30
2022-07-25T09:47:00.793Z,70.80
2022-07-25T09:49:45.096Z,70.30
2022-07-25T09:52:12.521Z,72.00
2022-07-25T09:54:40.266Z,71.50
2022-07-25T09:57:07.124Z,72.10
2022-07-25T09:59:34.764Z,73.30
2022-07-25T10:02:10.003Z,72.60
2022-07-25T10:04:45.512Z,72.40
2022-07-25T10:07:14.696Z,72.00
2022-07-25T10:09:54.287Z,72.70
2022-07-25T10:12:23.380Z,72.50
2022-07-25T10:15:08.194Z,70.50
2022-07-25T10:17:36.153Z,70.10
2022-07-25T10:20:06.334Z,69.60
2022-07-25T10:22:57.298Z,70.40
2022-07-25T10:25:24.419Z,71.90
2022-07-25T10:27:58.144Z,71.80
2022-07-25T10:30:27.078Z,70.90
2022-07-25T10:33:01.684Z,70.90
2022-07-25T10:35:28.908Z,71.40
2022-07-25T10:37:57.704Z,72.40
2022-07-25T10:40:34.950Z,72.40
2022-07-25T10:43:06.827Z,73.20
2022-07-25T10:45:48.669Z,71.60
2022-07-25T10:48:31.667Z,71.30
2022-07-25T10:51:04.385Z,70.70
2022-07-25T10:53:46.138Z,69.20
2022-07-25T10:56:21.036Z,68.60
2022-07-25T10:58:52.063Z,69.20
2022-07-25T11:01:32.942Z,70.10
2022-07-25T11:04:02.622Z,70.10
2022-07-25T11:06:37.405Z,69.80
2022-07-25T11:09:17.651Z,69.50
2022-07-25T11:11:50.619Z,70.30
2022-07-25T11:14:36.290Z,71.10
2022-07-25T11:17:20.125Z,70.00
2022-07-25T11:20:06.145Z,70.30
2022-07-25T11:22:33.260Z,68.40
2022-07-25T11:25:01.006Z,69.10
2022-07-25T11:27:32.111Z,69.40
2022-07-25T11:30:21.598Z,71.20
2022-07-25T11:32:57.705Z,69.30
2022-07-25T11:35:26.870Z,67.80
2022-07-25T11:37:54.351Z,66.60
2022-07-25T11:40:22.616Z,67.90
2022-07-25T11:42:54.561Z,66.00
2022-07-25T11:45:36.480Z,66.90
2022-07-25T11:48:08.760Z,68.60
2022-07-25T11:50:38.079Z,69.40
2022-07-25T11:53:07.668Z,68.50
2022-07-25T11:55:37.272Z,69.10
2022-07-25T11:58:05.221Z,69.10
2022-07-25T12:00:36.538Z,69.40
2022-07-25T12:03:15.441Z,66.80
2022-07-25T12:05:45.557Z,67.60
2022-07-25T12:08:18.060Z,68.60
2022-07-25T12:10:47.463Z,69.40
2022-07-25T12:13:43.564Z,70.30
2022-07-25T12:16:10.200Z,70.40
2022-07-25T12:18:38.421Z,70.00
2022-07-25T12:21:05.350Z,69.50
2022-07-25T12:23:32.321Z,69.20
2022-07-25T12:25:58.989Z,68.00
2022-07-25T12:28:25.808Z,67.30
2022-07-25T12:30:56.452Z,66.60
2022-07-25T12:33:24.109Z,66.90
2022-07-25T12:35:50.892Z,66.80
2022-07-25T12:38:17.617Z,66.60
2022-07-25T12:40:44.704Z,67.60
2022-07-25T12:43:11.289Z,68.20
2022-07-25T12:45:38.343Z,70.20
2022-07-25T12:48:05.290Z,68.80
2022-07-25T12:50:32.095Z,69.40
2022-07-25T12:52:58.746Z,70.30
2022-07-25T12:55:25.409Z,69.50
2022-07-25T12:57:52.004Z,68.80
2022-07-25T13:00:21.385Z,69.10
2022-07-25T13:02:51.009Z,70.50
2022-07-25T13:05:18.651Z,71.90
2022-07-25T13:07:45.401Z,71.60
2022-07-25T13:10:12.609Z,73.40
2022-07-25T13:12:39.229Z,70.50
2022-07-25T13:15:06.364Z,70.10
2022-07-25T13:17:33.138Z,71.70
2022-07-25T13:19:59.914Z,73.00
2022-07-25T13:22:27.343Z,71.20
2022-07-25T13:24:54.534Z,70.60
2022-07-25T13:27:22.281Z,68.70
2022-07-25T13:29:54.124Z,70.30
2022-07-25T13:32:21.989Z,69.50
2022-07-25T13:34:48.741Z,69.70
2022-07-25T13:37:15.493Z,70.70
2022-07-25T13:39:42.271Z,69.30
2022-07-25T13:42:09.400Z,67.30
2022-07-25T13:44:36.211Z,67.60
2022-07-25T13:47:02.863Z,67.00
2022-07-25T13:49:30.784Z,67.20
2022-07-25T13:51:57.395Z,67.30
2022-07-25T13:54:24.047Z,68.10
2022-07-25T13:56:50.719Z,68.20
2022-07-25T13:59:21.217Z,69.40
2022-07-25T14:01:48.888Z,69.40
2022-07-25T14:04:15.775Z,69.50
2022-07-25T14:06:42.770Z,67.70
2022-07-25T14:09:09.830Z,67.20
2022-07-25T14:11:36.807Z,68.10
2022-07-25T14:14:03.596Z,69.30
2022-07-25T14:16:30.306Z,69.70
2022-07-25T14:18:57.035Z,70.00
2022-07-25T14:21:23.983Z,69.80
2022-07-25T14:23:52.208Z,70.00
2022-07-25T14:26:18.848Z,69.00
2022-07-25T14:28:45.489Z,69.60
2022-07-25T14:31:12.194Z,70.60
2022-07-25T14:33:40.051Z,70.50
2022-07-25T14:36:08.227Z,68.80
2022-07-25T14:38:34.988Z,69.70
2022-07-25T14:41:03.403Z,70.80
2022-07-25T14:43:30.205Z,71.30
2022-07-25T14:45:56.911Z,71.10
2022-07-25T14:48:23.526Z,72.10
2022-07-25T14:50:50.361Z,72.40
2022-07-25T14:53:17.024Z,73.10
2022-07-25T14:55:43.643Z,72.80
2022-07-25T14:58:10.274Z,71.50
2022-07-25T15:00:41.544Z,73.00
2022-07-25T15:03:09.498Z,72.30
2022-07-25T15:05:36.490Z,72.60
2022-07-25T15:08:03.155Z,72.50
2022-07-25T15:10:29.790Z,72.70
2022-07-25T15:13:20.491Z,73.00
2022-07-25T15:15:43.168Z,73.40
2022-07-25T15:18:13.868Z,73.60
2022-07-25T15:20:41.106Z,74.00
2022-07-25T15:23:07.773Z,74.20
2022-07-25T15:26:00.666Z,74.50
2022-07-25T15:28:21.716Z,74.30
2022-07-25T15:30:48.479Z,74.60
2022-07-25T15:33:15.335Z,74.30
2022-07-25T15:35:43.810Z,74.40
2022-07-25T15:38:10.414Z,75.20
2022-07-25T15:40:37.341Z,74.80
2022-07-25T15:43:04.108Z,74.00
2022-07-25T15:45:33.112Z,74.90
2022-07-25T15:48:01.393Z,74.10
2022-07-25T15:50:28.014Z,74.90
2022-07-25T15:52:54.674Z,74.80
2022-07-25T15:55:21.376Z,74.70
2022-07-25T15:57:47.974Z,74.70
2022-07-25T16:00:14.813Z,74.60
2022-07-25T16:02:41.501Z,73.30
2022-07-25T16:05:08.400Z,74.30
2022-07-25T16:07:35.027Z,73.50
2022-07-25T16:10:01.686Z,71.80
2022-07-25T16:12:28.928Z,72.90
2022-07-25T16:14:56.227Z,73.20
2022-07-25T16:17:23.695Z,73.00
2022-07-25T16:19:50.330Z,73.60
2022-07-25T16:22:16.914Z,72.80
2022-07-25T16:24:43.541Z,72.50
2022-07-25T16:27:10.225Z,72.00
2022-07-25T16:29:37.403Z,71.60
2022-07-25T16:32:05.362Z,69.40
2022-07-25T16:34:32.760Z,72.00
2022-07-25T16:37:00.063Z,72.30
2022-07-25T16:39:26.692Z,70.90
2022-07-25T16:41:53.774Z,72.40
2022-07-25T16:44:20.582Z,71.20
2022-07-25T16:46:47.249Z,72.40
2022-07-25T16:49:17.014Z,68.00
2022-07-25T16:51:44.721Z,70.60
2022-07-25T16:54:11.605Z,68.50
2022-07-25T16:56:38.856Z,71.20
2022-07-25T16:59:06.957Z,69.70
2022-07-25T17:01:34.969Z,71.20
2022-07-25T17:04:02.106Z,69.10
2022-07-25T17:06:28.773Z,68.00
2022-07-25T17:08:58.735Z,69.60
2022-07-25T17:11:26.721Z,69.10
2022-07-25T17:13:53.317Z,70.50
2022-07-25T17:16:19.975Z,69.80
2022-07-25T17:18:46.594Z,71.00
2022-07-25T17:21:15.187Z,68.80
2022-07-25T17:23:41.966Z,70.00
2022-07-25T17:26:08.573Z,69.00
2022-07-25T17:28:35.418Z,69.70
2022-07-25T17:31:02.139Z,70.40
2022-07-25T17:33:28.759Z,69.40
2022-07-25T17:35:55.353Z,70.30
2022-07-25T17:38:26.303Z,71.00
2022-07-25T17:40:54.410Z,71.00
2022-07-25T17:43:21.136Z,70.90
2022-07-25T17:45:47.899Z,71.20
2022-07-25T17:48:15.474Z,69.80
2022-07-25T17:50:42.254Z,70.70
2022-07-25T17:53:08.887Z,69.30
2022-07-25T17:55:38.793Z,68.60
2022-07-25T17:58:06.038Z,68.50
2022-07-25T18:00:32.704Z,67.50
2022-07-25T18:02:59.642Z,68.20
2022-07-25T18:05:26.707Z,70.70
2022-07-25T18:07:53.857Z,69.40
2022-07-25T18:10:21.748Z,70.50
2022-07-25T18:12:49.292Z,69.60
2022-07-25T18:15:16.490Z,70.30
2022-07-25T18:17:45.291Z,70.80
2022-07-25T18:20:13.715Z,69.20
2022-07-25T18:22:43.632Z,68.40
2022-07-25T18:25:12.086Z,71.00
2022-07-25T18:27:43.261Z,70.80
2022-07-25T18:30:10.898Z,70.90
2022-07-25T18:32:38.670Z,70.70
2022-07-25T18:35:07.696Z,69.00
2022-07-25T18:37:35.305Z,71.00
2022-07-25T18:40:01.942Z,69.80
2022-07-25T18:42:30.102Z,70.60
2022-07-25T18:44:57.212Z,70.60
2022-07-25T18:47:26.082Z,70.00
2022-07-25T18:49:54.063Z,68.40
2022-07-25T18:52:21.468Z,70.30
2022-07-25T18:54:48.151Z,69.90
2022-07-25T18:57:15.194Z,69.30
2022-07-25T18:59:42.134Z,70.00
2022-07-25T19:02:08.839Z,69.30
2022-07-25T19:04:35.728Z,69.30
2022-07-25T19:07:02.508Z,69.70
2022-07-25T19:09:29.160Z,68.10
2022-07-25T19:11:56.584Z,66.30
2022-07-25T19:14:25.941Z,69.30
2022-07-25T19:16:53.735Z,68.80
2022-07-25T19:19:23.174Z,68.30
2022-07-25T19:21:50.052Z,68.70
2022-07-25T19:24:16.711Z,68.30
2022-07-25T19:26:43.986Z,69.70
2022-07-25T19:29:16.398Z,68.80
2022-07-25T19:31:43.333Z,70.20
2022-07-25T19:34:11.122Z,69.60
2022-07-25T19:36:38.303Z,68.60
2022-07-25T19:39:06.022Z,67.90
2022-07-25T19:41:32.757Z,70.70
2022-07-25T19:43:59.432Z,70.00
2022-07-25T19:46:29.529Z,69.70
2022-07-25T19:48:56.325Z,70.20
2022-07-25T19:51:23.010Z,70.00
2022-07-25T19:53:49.642Z,69.40
2022-07-25T19:56:16.254Z,68.50
2022-07-25T19:58:43.480Z,69.50
2022-07-25T20:01:11.010Z,69.20
2022-07-25T20:03:37.763Z,68.70
2022-07-25T20:06:08.004Z,70.10
2022-07-25T20:08:35.430Z,70.40
2022-07-25T20:11:02.131Z,67.80
2022-07-25T20:13:29.593Z,69.20
2022-07-25T20:15:56.237Z,69.10
2022-07-25T20:18:22.838Z,70.70
2022-07-25T20:20:49.677Z,70.10
2022-07-25T20:23:16.475Z,69.60
2022-07-25T20:25:43.112Z,68.90
2022-07-25T20:28:10.029Z,68.20
2022-07-25T20:30:36.702Z,70.30
2022-07-25T20:33:08.023Z,68.60
2022-07-25T20:35:37.722Z,67.40
2022-07-25T20:38:09.321Z,66.70
2022-07-25T20:40:39.140Z,69.90
2022-07-25T20:43:08.432Z,66.50
2022-07-25T20:45:35.125Z,69.90
2022-07-25T20:48:01.798Z,69.90
2022-07-25T20:50:28.572Z,68.20
2022-07-25T20:52:55.210Z,70.40
2022-07-25T20:55:22.286Z,69.10
2022-07-25T20:57:50.881Z,70.00
2022-07-25T21:00:18.025Z,69.00
2022-07-25T21:02:44.767Z,68.10
2022-07-25T21:05:11.551Z,68.10
2022-07-25T21:07:38.278Z,69.10
2022-07-25T21:10:05.270Z,68.30
2022-07-25T21:12:33.033Z,68.60
2022-07-25T21:15:01.117Z,69.50
2022-07-25T21:17:28.085Z,71.00
2022-07-25T21:19:54.729Z,71.00
2022-07-25T21:22:21.489Z,71.30
2022-07-25T21:24:52.247Z,71.70
2022-07-25T21:27:19.817Z,72.10
2022-07-25T21:29:46.849Z,71.90
2022-07-25T21:32:14.002Z,72.50
2022-07-25T21:34:41.781Z,72.50
2022-07-25T21:37:08.492Z,71.80
2022-07-25T21:39:35.218Z,72.40
2022-07-25T21:42:02.146Z,70.20
2022-07-25T21:44:28.729Z,71.50
2022-07-25T21:46:55.340Z,72.10
2022-07-25T21:49:41.579Z,71.40
2022-07-25T21:52:13.633Z,71.30
2022-07-25T21:54:44.337Z,71.10
2022-07-25T21:57:13.539Z,70.30
2022-07-25T21:59:44.833Z,69.90
2022-07-25T22:02:12.161Z,70.60
2022-07-25T22:04:39.405Z,71.60
2022-07-25T22:07:06.527Z,69.40
2022-07-25T22:09:33.112Z,70.90
2022-07-25T22:11:59.788Z,69.70
2022-07-25T22:14:26.738Z,70.70
2022-07-25T22:16:53.713Z,72.20
2022-07-25T22:19:22.457Z,71.40
2022-07-25T22:21:49.812Z,71.40
2022-07-25T22:24:16.484Z,72.20
2022-07-25T22:26:43.271Z,71.30
2022-07-25T22:29:10.358Z,70.40
2022-07-25T22:31:39.099Z,70.90
2022-07-25T22:34:06.125Z,70.90
2022-07-25T22:36:32.762Z,70.70
2022-07-25T22:38:59.375Z,71.10
2022-07-25T22:41:25.954Z,72.40
2022-07-25T22:43:56.541Z,73.00
2022-07-25T22:46:26.930Z,72.60
2022-07-25T22:48:53.697Z,72.20
2022-07-25T22:51:20.388Z,72.40
2022-07-25T22:53:47.004Z,73.00
2022-07-25T22:56:13.604Z,71.70
2022-07-25T22:58:40.315Z,73.10
2022-07-25T23:01:06.966Z,73.20
2022-07-25T23:03:34.630Z,73.00
2022-07-25T23:06:01.263Z,72.60
2022-07-25T23:08:28.350Z,73.60
2022-07-25T23:10:55.763Z,73.00
2022-07-25T23:13:22.548Z,72.40
2022-07-25T23:15:50.307Z,73.40
2022-07-25T23:18:18.265Z,73.30
2022-07-25T23:20:44.816Z,74.10
2022-07-25T23:23:11.474Z,73.50
2022-07-25T23:25:38.039Z,74.20
2022-07-25T23:28:04.876Z,74.80
2022-07-25T23:30:35.327Z,74.90
2022-07-25T23:33:04.762Z,74.00
2022-07-25T23:35:31.559Z,74.20
2022-07-25T23:37:58.262Z,74.00
2022-07-25T23:40:26.656Z,74.60
2022-07-25T23:42:54.276Z,74.40
2022-07-25T23:45:21.605Z,74.40
2022-07-25T23:47:48.329Z,75.30
2022-07-25T23:50:15.626Z,75.10
2022-07-25T23:52:42.311Z,74.80
2022-07-25T23:55:09.794Z,75.80
2022-07-25T23:57:36.400Z,75.60
